Terminal Aerodrome Forecast
Issued by NWS Shreveport, LA

Home | Current Version | Previous Version | Text Only | Print | Product List | Glossary On
Versions: 1 2 3 4 5 6 7 8 9 10 11 12 13 14 15
000
FTUS44 KSHV 291143
TAFTXK
TAF
KTXK 291143Z 2912/3012 06003KT P6SM FEW060 SCT150 SCT250
      TEMPO 2912/2914 4SM BR
     FM291600 07007KT P6SM SCT030 SCT250
     FM291800 07008KT P6SM SCT040 BKN250
     FM300100 06003KT P6SM FEW060 SCT250
     FM300900 06003KT 5SM BR FEW060 SCT250=

USA.gov is the U.S. government's official web portal to all federal, state and local government web resources and services.